Time;durP1;ratioP1;P1;durP2;ratioP2;P2;SDS_P1;SDS_P2;PMS_P1;PMS_P2;Temp;Humidity;BMP_temperature;BMP_pressure;BME280_temperature;BME280_humidity;BME280_pressure;Samples;Min_cycle;Max_cycle;Signal;HPM_P1;HPM_P2
2022/03/29 00:01:39;;;;;;;17.50;2.95;;;;;;;;;;4983719;28;20065;-41
2022/03/29 00:04:06;;;;;;;16.55;3.08;;;;;;;;;;4978827;28;20616;-40
2022/03/29 00:06:33;;;;;;;17.48;3.35;;;;;;;;;;4980424;28;20042;-40
2022/03/29 00:09:00;;;;;;;7.97;2.30;;;;;;;;;;4965560;28;20041;-39
2022/03/29 00:11:27;;;;;;;18.48;2.88;;;;;;;;;;4982504;28;20042;-39
2022/03/29 00:14:05;;;;;;;16.73;3.05;;;;;;;;;;4981435;28;20161;-40
2022/03/29 00:16:33;;;;;;;19.20;4.10;;;;;;;;;;4982669;28;20057;-39
2022/03/29 00:19:00;;;;;;;14.20;3.72;;;;;;;;;;4980894;28;20034;-39
2022/03/29 00:21:27;;;;;;;14.35;3.42;;;;;;;;;;4980089;28;20034;-41
2022/03/29 00:23:54;;;;;;;20.33;4.18;;;;;;;;;;4974117;28;20035;-40
2022/03/29 00:26:24;;;;;;;18.02;4.15;;;;;;;;;;4974357;28;20030;-40
2022/03/29 00:28:54;;;;;;;19.35;4.18;;;;;;;;;;4973972;28;20066;-41
2022/03/29 00:31:24;;;;;;;27.40;5.10;;;;;;;;;;4973866;28;20038;-40
2022/03/29 00:33:51;;;;;;;24.45;5.70;;;;;;;;;;4974054;28;20034;-40
2022/03/29 00:36:23;;;;;;;27.33;5.95;;;;;;;;;;4956276;28;20089;-40
2022/03/29 00:38:50;;;;;;;29.95;6.78;;;;;;;;;;4974297;28;20033;-40
2022/03/29 00:41:17;;;;;;;30.52;7.20;;;;;;;;;;4973868;28;20023;-40
2022/03/29 00:43:44;;;;;;;25.60;6.78;;;;;;;;;;4973541;28;20026;-41
2022/03/29 00:46:11;;;;;;;27.70;6.05;;;;;;;;;;4973643;28;20093;-40
2022/03/29 00:48:41;;;;;;;29.60;5.95;;;;;;;;;;4973787;28;20037;-40
2022/03/29 00:51:09;;;;;;;21.10;5.18;;;;;;;;;;4977830;28;20065;-40
2022/03/29 00:53:36;;;;;;;25.90;6.20;;;;;;;;;;4980759;28;20066;-40
2022/03/29 00:56:03;;;;;;;27.10;5.93;;;;;;;;;;4973681;28;20038;-40
2022/03/29 00:58:34;;;;;;;21.35;5.57;;;;;;;;;;4977229;28;20026;-40
2022/03/29 01:01:04;;;;;;;32.92;6.70;;;;;;;;;;4978890;28;20031;-40
2022/03/29 01:03:31;;;;;;;23.38;5.70;;;;;;;;;;4973161;28;20114;-40
2022/03/29 01:05:58;;;;;;;18.80;5.32;;;;;;;;;;4955645;28;20457;-41
2022/03/29 01:08:27;;;;;;;31.30;6.40;;;;;;;;;;4978303;28;20060;-42
2022/03/29 01:10:54;;;;;;;26.20;5.63;;;;;;;;;;4987201;28;20504;-40
2022/03/29 01:13:21;;;;;;;19.45;5.13;;;;;;;;;;4981248;28;20054;-40
2022/03/29 01:15:50;;;;;;;22.00;5.50;;;;;;;;;;4965085;28;20031;-41
2022/03/29 01:18:20;;;;;;;18.30;5.28;;;;;;;;;;4981258;28;20054;-40
2022/03/29 01:20:50;;;;;;;29.23;5.50;;;;;;;;;;4981030;28;20118;-40
2022/03/29 01:23:18;;;;;;;21.83;5.25;;;;;;;;;;4975746;28;20536;-41
2022/03/29 01:25:46;;;;;;;17.13;4.63;;;;;;;;;;4973334;28;20374;-41
2022/03/29 01:28:15;;;;;;;16.40;4.50;;;;;;;;;;4972678;28;20031;-40
2022/03/29 01:30:42;;;;;;;18.15;4.75;;;;;;;;;;4973586;28;20027;-40
2022/03/29 01:33:10;;;;;;;15.98;4.63;;;;;;;;;;4973456;28;20030;-40
2022/03/29 01:35:37;;;;;;;14.70;4.38;;;;;;;;;;4990496;28;20057;-40
2022/03/29 01:38:04;;;;;;;19.27;4.63;;;;;;;;;;4992944;28;20026;-40
2022/03/29 01:40:31;;;;;;;18.23;4.88;;;;;;;;;;4992785;28;20125;-39
2022/03/29 01:42:59;;;;;;;14.98;4.70;;;;;;;;;;4992781;28;20027;-40
2022/03/29 01:45:28;;;;;;;18.88;4.35;;;;;;;;;;4981226;28;20404;-40
2022/03/29 01:47:55;;;;;;;19.92;4.68;;;;;;;;;;4984752;28;20032;-40
2022/03/29 01:50:22;;;;;;;18.98;4.20;;;;;;;;;;4979902;28;20035;-40
2022/03/29 01:52:50;;;;;;;15.75;4.63;;;;;;;;;;4977966;28;20400;-40
2022/03/29 01:55:18;;;;;;;15.80;4.10;;;;;;;;;;4977821;28;20038;-40
2022/03/29 01:57:45;;;;;;;19.50;4.72;;;;;;;;;;4973256;28;20129;-40
2022/03/29 02:00:34;;;;;;;16.58;4.38;;;;;;;;;;4973596;28;20031;-40
2022/03/29 02:03:02;;;;;;;12.95;3.67;;;;;;;;;;4973454;28;20026;-39
2022/03/29 02:05:31;;;;;;;14.75;4.28;;;;;;;;;;4973312;28;20408;-40
2022/03/29 02:07:58;;;;;;;21.83;4.55;;;;;;;;;;4973226;28;20054;-40
2022/03/29 02:10:25;;;;;;;13.27;4.15;;;;;;;;;;4973442;28;20042;-40
2022/03/29 02:12:52;;;;;;;13.00;4.35;;;;;;;;;;4973458;28;20053;-40
2022/03/29 02:15:19;;;;;;;14.18;4.13;;;;;;;;;;4973359;28;20511;-40
2022/03/29 02:17:50;;;;;;;14.77;4.50;;;;;;;;;;4977332;28;20046;-40
2022/03/29 02:20:21;;;;;;;9.95;3.78;;;;;;;;;;4977078;28;20511;-40
2022/03/29 02:22:48;;;;;;;13.70;4.47;;;;;;;;;;4977330;28;20027;-40
2022/03/29 02:25:15;;;;;;;18.98;3.45;;;;;;;;;;4959735;28;20066;-40
2022/03/29 02:27:46;;;;;;;13.50;3.92;;;;;;;;;;4977247;28;20094;-42
2022/03/29 02:30:14;;;;;;;10.85;3.80;;;;;;;;;;4976932;28;20138;-40
2022/03/29 02:32:41;;;;;;;11.88;3.72;;;;;;;;;;4976929;28;20050;-40
2022/03/29 02:35:09;;;;;;;11.85;3.75;;;;;;;;;;4977008;28;20050;-40
2022/03/29 02:37:37;;;;;;;9.88;3.78;;;;;;;;;;4977060;28;20046;-40
2022/03/29 02:40:05;;;;;;;13.23;3.72;;;;;;;;;;4977015;28;20142;-40
2022/03/29 02:42:33;;;;;;;9.85;3.30;;;;;;;;;;4976744;28;20035;-40
2022/03/29 02:45:01;;;;;;;13.27;3.83;;;;;;;;;;4976822;28;20031;-41
2022/03/29 02:47:28;;;;;;;11.90;3.10;;;;;;;;;;4976707;28;20042;-40
2022/03/29 02:49:55;;;;;;;10.68;3.10;;;;;;;;;;4976624;28;20027;-40
2022/03/29 02:52:22;;;;;;;10.43;3.50;;;;;;;;;;4976834;28;20114;-40
2022/03/29 02:54:49;;;;;;;10.55;3.28;;;;;;;;;;4976676;28;20035;-40
2022/03/29 02:57:16;;;;;;;9.23;3.58;;;;;;;;;;4976874;28;20027;-40
2022/03/29 02:59:45;;;;;;;8.88;2.92;;;;;;;;;;4959414;28;20031;-40
2022/03/29 03:02:12;;;;;;;9.00;2.78;;;;;;;;;;4976641;28;20031;-40
2022/03/29 03:04:39;;;;;;;11.88;3.13;;;;;;;;;;4976617;28;20843;-40
2022/03/29 03:07:06;;;;;;;8.80;3.40;;;;;;;;;;4976610;28;20046;-40
2022/03/29 03:09:33;;;;;;;10.32;3.40;;;;;;;;;;4976732;28;20034;-40
2022/03/29 03:12:00;;;;;;;10.63;3.17;;;;;;;;;;4976437;28;20564;-40
2022/03/29 03:14:27;;;;;;;9.82;3.72;;;;;;;;;;4976517;28;20034;-40
2022/03/29 03:16:57;;;;;;;8.30;3.10;;;;;;;;;;4976537;28;20027;-40
2022/03/29 03:19:24;;;;;;;8.90;3.05;;;;;;;;;;4976587;28;20027;-40
2022/03/29 03:21:51;;;;;;;9.10;3.28;;;;;;;;;;4976502;28;20054;-40
2022/03/29 03:24:18;;;;;;;7.18;2.92;;;;;;;;;;4976368;28;20101;-40
2022/03/29 03:26:45;;;;;;;8.82;3.25;;;;;;;;;;4976220;28;20393;-40
2022/03/29 03:29:12;;;;;;;11.57;3.10;;;;;;;;;;4976370;28;20093;-40
2022/03/29 03:31:39;;;;;;;6.90;2.78;;;;;;;;;;4976225;28;20396;-40
2022/03/29 03:34:06;;;;;;;11.73;3.33;;;;;;;;;;4976269;28;20114;-40
2022/03/29 03:36:33;;;;;;;8.70;2.88;;;;;;;;;;4976295;28;20023;-40
2022/03/29 03:39:00;;;;;;;9.13;2.95;;;;;;;;;;4976288;28;20792;-40
2022/03/29 03:41:27;;;;;;;11.50;3.33;;;;;;;;;;4976196;28;20488;-40
2022/03/29 03:43:54;;;;;;;6.00;2.63;;;;;;;;;;4975954;28;20393;-40
2022/03/29 03:46:21;;;;;;;12.23;2.67;;;;;;;;;;4976038;28;20451;-40
2022/03/29 03:48:48;;;;;;;9.07;3.25;;;;;;;;;;4976044;28;20027;-40
2022/03/29 03:51:15;;;;;;;7.90;3.00;;;;;;;;;;4975965;28;20050;-40
2022/03/29 03:53:42;;;;;;;9.57;2.83;;;;;;;;;;4975881;28;20031;-40
2022/03/29 03:56:09;;;;;;;9.75;2.85;;;;;;;;;;4975952;28;20027;-40
2022/03/29 03:58:36;;;;;;;8.30;2.85;;;;;;;;;;4975901;28;20050;-40
2022/03/29 04:01:03;;;;;;;6.78;2.75;;;;;;;;;;4975853;28;20161;-40
2022/03/29 04:03:30;;;;;;;5.13;2.38;;;;;;;;;;4975680;28;20029;-40
2022/03/29 04:05:57;;;;;;;10.23;3.20;;;;;;;;;;4975543;28;20132;-40
2022/03/29 04:08:24;;;;;;;8.25;2.47;;;;;;;;;;4975748;28;20085;-40
2022/03/29 04:10:51;;;;;;;7.03;2.83;;;;;;;;;;4975631;28;20484;-40
2022/03/29 04:13:19;;;;;;;10.60;2.58;;;;;;;;;;4975553;28;20031;-40
2022/03/29 04:15:46;;;;;;;8.98;2.85;;;;;;;;;;4975473;28;20046;-39
2022/03/29 04:18:13;;;;;;;7.53;2.53;;;;;;;;;;4975493;28;20118;-42
2022/03/29 04:20:40;;;;;;;7.07;2.90;;;;;;;;;;4958100;28;20400;-39
2022/03/29 04:23:08;;;;;;;11.13;2.78;;;;;;;;;;4975352;28;20027;-40
2022/03/29 04:25:35;;;;;;;8.90;2.63;;;;;;;;;;4975441;28;20116;-40
2022/03/29 04:28:02;;;;;;;6.53;2.83;;;;;;;;;;4957990;28;20049;-41
2022/03/29 04:30:29;;;;;;;10.55;2.92;;;;;;;;;;4975252;28;20027;-40
2022/03/29 04:32:56;;;;;;;5.68;2.28;;;;;;;;;;4975219;28;20059;-40
2022/03/29 04:35:23;;;;;;;6.43;2.28;;;;;;;;;;4975261;28;20025;-40
2022/03/29 04:37:50;;;;;;;6.95;2.47;;;;;;;;;;4975195;28;20029;-40
2022/03/29 04:40:17;;;;;;;9.95;2.75;;;;;;;;;;4974526;28;20031;-40
2022/03/29 04:42:48;;;;;;;4.75;2.17;;;;;;;;;;4974928;28;20460;-39
2022/03/29 04:45:15;;;;;;;5.05;2.33;;;;;;;;;;4974988;28;20030;-40
2022/03/29 04:47:43;;;;;;;7.00;2.85;;;;;;;;;;4975029;28;20023;-40
2022/03/29 04:50:11;;;;;;;7.22;2.20;;;;;;;;;;4974715;28;20077;-40
2022/03/29 04:52:39;;;;;;;5.35;2.42;;;;;;;;;;4974893;28;20062;-41
2022/03/29 04:55:07;;;;;;;5.55;2.17;;;;;;;;;;4974668;28;20074;-40
2022/03/29 04:57:34;;;;;;;4.40;2.30;;;;;;;;;;4974828;28;20509;-41
2022/03/29 05:00:02;;;;;;;7.72;2.78;;;;;;;;;;4974748;28;20027;-40
2022/03/29 05:02:29;;;;;;;5.32;2.03;;;;;;;;;;4974680;28;20031;-40
2022/03/29 05:04:56;;;;;;;6.00;2.30;;;;;;;;;;4974573;28;20027;-40
2022/03/29 05:07:23;;;;;;;7.10;2.60;;;;;;;;;;4974391;28;20113;-40
2022/03/29 05:09:51;;;;;;;4.35;1.98;;;;;;;;;;4974538;28;20118;-40
2022/03/29 05:12:18;;;;;;;7.85;2.47;;;;;;;;;;4974525;28;20508;-40
2022/03/29 05:14:45;;;;;;;5.85;2.55;;;;;;;;;;4974442;28;20567;-40
2022/03/29 05:17:12;;;;;;;6.00;2.22;;;;;;;;;;4974471;28;20027;-40
2022/03/29 05:19:39;;;;;;;7.68;2.60;;;;;;;;;;4974424;28;20046;-40
2022/03/29 05:22:06;;;;;;;7.65;2.58;;;;;;;;;;4974239;28;20458;-40
2022/03/29 05:24:34;;;;;;;9.23;2.80;;;;;;;;;;4974284;28;20073;-40
2022/03/29 05:27:01;;;;;;;9.82;2.67;;;;;;;;;;4974322;28;20023;-40
2022/03/29 05:29:30;;;;;;;4.30;2.53;;;;;;;;;;4974303;28;20027;-40
2022/03/29 05:31:58;;;;;;;8.02;2.55;;;;;;;;;;4974011;28;20114;-40
2022/03/29 05:34:25;;;;;;;8.50;2.72;;;;;;;;;;4973984;28;20093;-40
2022/03/29 05:36:53;;;;;;;5.00;2.28;;;;;;;;;;4974045;28;20038;-40
2022/03/29 05:39:20;;;;;;;6.07;2.47;;;;;;;;;;4974030;28;20109;-40
2022/03/29 05:41:47;;;;;;;7.72;2.58;;;;;;;;;;4974078;28;20035;-40
2022/03/29 05:44:14;;;;;;;6.53;2.28;;;;;;;;;;4974053;28;20401;-40
2022/03/29 05:49:27;;;;;;;5.93;2.60;;;;;;;;;;4974026;28;20050;-40
2022/03/29 05:51:54;;;;;;;4.38;2.47;;;;;;;;;;4972941;28;20781;-40
2022/03/29 05:54:21;;;;;;;8.68;2.40;;;;;;;;;;4973922;28;20029;-40
2022/03/29 05:56:49;;;;;;;7.30;2.40;;;;;;;;;;4973904;28;20038;-40
2022/03/29 05:59:16;;;;;;;5.60;2.20;;;;;;;;;;4973747;28;20555;-40
2022/03/29 06:01:43;;;;;;;7.45;2.58;;;;;;;;;;4973869;28;20058;-40
2022/03/29 06:04:10;;;;;;;3.45;2.10;;;;;;;;;;4973688;28;20037;-40
2022/03/29 06:06:39;;;;;;;8.63;2.47;;;;;;;;;;4973660;28;20512;-40
2022/03/29 06:09:06;;;;;;;7.32;2.42;;;;;;;;;;4973944;28;20046;-40
2022/03/29 06:11:33;;;;;;;4.30;2.30;;;;;;;;;;4973741;28;20453;-40
2022/03/29 06:14:01;;;;;;;6.18;2.20;;;;;;;;;;4973689;28;20043;-40
2022/03/29 06:16:28;;;;;;;6.25;2.30;;;;;;;;;;4973592;28;20102;-40
2022/03/29 06:18:55;;;;;;;3.15;1.90;;;;;;;;;;4973692;28;20027;-40
2022/03/29 06:21:24;;;;;;;6.35;2.88;;;;;;;;;;4973707;28;20054;-40
2022/03/29 06:23:51;;;;;;;5.93;2.65;;;;;;;;;;4973539;28;20069;-40
2022/03/29 06:26:18;;;;;;;4.43;2.53;;;;;;;;;;4973610;28;20115;-40
2022/03/29 06:28:45;;;;;;;5.32;2.30;;;;;;;;;;4973594;28;20481;-40
2022/03/29 06:31:12;;;;;;;4.70;2.60;;;;;;;;;;5130405;23;20108;-47
2022/03/29 06:33:39;;;;;;;6.78;2.40;;;;;;;;;;5028176;28;20037;-55
2022/03/29 06:36:06;;;;;;;4.75;2.35;;;;;;;;;;5032234;28;20033;-55
2022/03/29 06:38:34;;;;;;;5.05;2.25;;;;;;;;;;5032286;28;20025;-53
2022/03/29 06:41:01;;;;;;;5.55;2.40;;;;;;;;;;5032272;28;20037;-55
2022/03/29 06:43:28;;;;;;;4.20;2.25;;;;;;;;;;5032208;28;20025;-50
2022/03/29 06:45:55;;;;;;;7.85;2.25;;;;;;;;;;5032199;28;20025;-52
2022/03/29 06:48:23;;;;;;;7.03;2.75;;;;;;;;;;5032093;28;20116;-53
2022/03/29 06:50:50;;;;;;;5.55;2.10;;;;;;;;;;5032047;28;20026;-55
2022/03/29 06:53:17;;;;;;;6.07;2.50;;;;;;;;;;5032004;28;20057;-52
2022/03/29 06:55:44;;;;;;;4.07;2.17;;;;;;;;;;5032048;28;20128;-55
2022/03/29 06:58:11;;;;;;;6.93;2.28;;;;;;;;;;5032087;28;20020;-51
2022/03/29 07:00:39;;;;;;;4.72;2.00;;;;;;;;;;5032023;28;20030;-54
2022/03/29 07:03:06;;;;;;;2.85;1.60;;;;;;;;;;5034430;28;20029;-55
2022/03/29 07:05:36;;;;;;;4.93;2.13;;;;;;;;;;5035662;28;20045;-55
2022/03/29 07:08:03;;;;;;;4.40;1.92;;;;;;;;;;5035760;28;20478;-54
2022/03/29 07:13:15;;;;;;;4.72;1.75;;;;;;;;;;5035422;28;20035;-54
2022/03/29 07:15:42;;;;;;;4.10;2.00;;;;;;;;;;5035469;28;20387;-55
2022/03/29 07:18:09;;;;;;;4.88;2.00;;;;;;;;;;5035243;28;20155;-53
2022/03/29 07:20:36;;;;;;;5.70;2.13;;;;;;;;;;5035334;28;20029;-53
2022/03/29 07:23:04;;;;;;;5.00;1.77;;;;;;;;;;5035219;28;20138;-55
2022/03/29 07:25:32;;;;;;;4.00;2.03;;;;;;;;;;5035246;28;20028;-54
2022/03/29 07:27:59;;;;;;;2.88;1.77;;;;;;;;;;5035103;28;20399;-55
2022/03/29 07:30:26;;;;;;;3.70;1.85;;;;;;;;;;5035045;28;20041;-54
2022/03/29 07:32:54;;;;;;;3.53;1.85;;;;;;;;;;5034863;28;20073;-55
2022/03/29 07:35:23;;;;;;;3.05;1.48;;;;;;;;;;5035104;28;20068;-53
2022/03/29 07:37:50;;;;;;;3.08;1.45;;;;;;;;;;5034967;28;20053;-52
2022/03/29 07:40:19;;;;;;;3.55;1.75;;;;;;;;;;5034861;28;20032;-54
2022/03/29 07:42:46;;;;;;;3.35;1.70;;;;;;;;;;5034842;28;20018;-54
2022/03/29 07:45:15;;;;;;;4.22;1.80;;;;;;;;;;5035099;28;20061;-55
2022/03/29 07:47:42;;;;;;;3.40;1.45;;;;;;;;;;5034758;28;20025;-53
2022/03/29 07:50:11;;;;;;;5.47;1.60;;;;;;;;;;5034707;28;20021;-55
2022/03/29 07:52:39;;;;;;;3.70;1.70;;;;;;;;;;5016773;28;20032;-54
2022/03/29 07:55:08;;;;;;;3.50;1.85;;;;;;;;;;5034708;28;20080;-52
2022/03/29 07:57:35;;;;;;;4.00;1.70;;;;;;;;;;5034653;28;20471;-52
2022/03/29 08:00:31;;;;;;;2.92;1.60;;;;;;;;;;5034626;28;20083;-49
2022/03/29 08:02:50;;;;;;;2.33;1.70;;;;;;;;;;5034258;28;20030;-50
2022/03/29 08:05:17;;;;;;;4.95;1.80;;;;;;;;;;5034483;28;20021;-53
2022/03/29 08:07:44;;;;;;;3.28;1.70;;;;;;;;;;5034471;28;20026;-48
2022/03/29 08:10:11;;;;;;;3.65;1.67;;;;;;;;;;5034407;28;20057;-53
2022/03/29 08:12:38;;;;;;;2.42;1.33;;;;;;;;;;5034246;28;20096;-51
2022/03/29 08:15:06;;;;;;;3.25;1.35;;;;;;;;;;5033360;28;20024;-52
2022/03/29 08:17:33;;;;;;;3.08;1.40;;;;;;;;;;5016457;28;20021;-50
2022/03/29 08:20:00;;;;;;;3.28;1.30;;;;;;;;;;5034250;28;20072;-49
2022/03/29 08:22:27;;;;;;;4.30;1.70;;;;;;;;;;5034076;28;20045;-49
2022/03/29 08:24:54;;;;;;;4.03;1.65;;;;;;;;;;5034193;28;20049;-52
2022/03/29 08:27:22;;;;;;;1.83;1.48;;;;;;;;;;5034060;28;20018;-51
2022/03/29 08:29:48;;;;;;;3.60;1.48;;;;;;;;;;5034073;28;20022;-48
2022/03/29 08:32:15;;;;;;;2.13;1.33;;;;;;;;;;5033665;28;20057;-50
2022/03/29 08:34:42;;;;;;;3.35;1.50;;;;;;;;;;5033987;28;20025;-52
2022/03/29 08:37:09;;;;;;;3.28;1.70;;;;;;;;;;5033967;28;20025;-49
2022/03/29 08:39:37;;;;;;;2.55;1.38;;;;;;;;;;5033742;28;20080;-53
2022/03/29 08:42:07;;;;;;;3.42;1.60;;;;;;;;;;5033780;28;20373;-49
2022/03/29 08:44:35;;;;;;;2.63;1.30;;;;;;;;;;5033661;28;20383;-48
2022/03/29 08:47:02;;;;;;;3.22;1.45;;;;;;;;;;5033742;28;20025;-50
2022/03/29 08:49:30;;;;;;;2.55;1.50;;;;;;;;;;5033688;28;20467;-50
2022/03/29 08:51:59;;;;;;;4.45;1.80;;;;;;;;;;5033324;28;20033;-49
2022/03/29 08:54:26;;;;;;;2.90;1.40;;;;;;;;;;5033611;28;20060;-52
2022/03/29 08:56:53;;;;;;;3.45;1.30;;;;;;;;;;5033568;28;20518;-55
2022/03/29 08:59:25;;;;;;;2.72;1.35;;;;;;;;;;5033501;28;20021;-50
2022/03/29 09:01:53;;;;;;;2.35;1.25;;;;;;;;;;5033255;28;20029;-50
2022/03/29 09:04:24;;;;;;;2.90;1.38;;;;;;;;;;5033384;28;20021;-49
2022/03/29 09:06:54;;;;;;;2.75;1.05;;;;;;;;;;5033656;28;20029;-50
2022/03/29 09:09:23;;;;;;;2.55;1.30;;;;;;;;;;5033207;28;20479;-50
2022/03/29 09:11:50;;;;;;;2.88;1.35;;;;;;;;;;5033099;28;20022;-48
2022/03/29 09:14:18;;;;;;;5.07;1.63;;;;;;;;;;5033078;28;20025;-51
2022/03/29 09:16:45;;;;;;;3.53;1.38;;;;;;;;;;5033072;28;20021;-50
2022/03/29 09:19:12;;;;;;;1.77;1.38;;;;;;;;;;5033127;28;20026;-50
2022/03/29 09:21:43;;;;;;;3.50;1.45;;;;;;;;;;5032952;28;20018;-48
2022/03/29 09:24:12;;;;;;;2.58;1.10;;;;;;;;;;5033091;28;20160;-47
2022/03/29 09:26:43;;;;;;;3.25;2.05;;;;;;;;;;5032673;28;20498;-46
2022/03/29 09:29:13;;;;;;;3.35;1.40;;;;;;;;;;5033010;28;20036;-47
2022/03/29 09:31:40;;;;;;;4.28;1.30;;;;;;;;;;5032423;28;20407;-52
2022/03/29 09:34:18;;;;;;;2.95;1.10;;;;;;;;;;5015059;28;20072;-48
2022/03/29 09:36:48;;;;;;;3.78;1.40;;;;;;;;;;5032712;28;20040;-47
2022/03/29 09:39:32;;;;;;;2.60;1.38;;;;;;;;;;5031709;28;20372;-48
2022/03/29 09:42:00;;;;;;;2.42;1.10;;;;;;;;;;5030516;28;20033;-50
2022/03/29 09:44:41;;;;;;;2.67;1.30;;;;;;;;;;5032828;28;20418;-48
2022/03/29 09:47:09;;;;;;;4.20;1.30;;;;;;;;;;5032093;28;20080;-48
2022/03/29 09:49:53;;;;;;;3.78;1.13;;;;;;;;;;5032092;28;20037;-47
2022/03/29 09:52:21;;;;;;;7.50;1.40;;;;;;;;;;5032357;28;20037;-47
2022/03/29 09:55:06;;;;;;;4.43;1.33;;;;;;;;;;5031497;28;20127;-47
2022/03/29 09:57:37;;;;;;;6.75;1.63;;;;;;;;;;5032571;28;20471;-52
2022/03/29 10:00:08;;;;;;;9.00;1.50;;;;;;;;;;5026880;28;20104;-48
2022/03/29 10:02:42;;;;;;;5.38;1.60;;;;;;;;;;5012280;28;20491;-52
2022/03/29 10:05:13;;;;;;;5.00;1.50;;;;;;;;;;5012201;28;20022;-49
2022/03/29 10:09:25;;;;;;;5.50;1.70;;;;;;;;;;5012565;28;20014;-50
2022/03/29 10:10:45;;;;;;;4.65;1.55;;;;;;;;;;5011906;28;20034;-50
2022/03/29 10:13:13;;;;;;;7.63;1.58;;;;;;;;;;5012387;28;20018;-48
2022/03/29 10:16:01;;;;;;;4.97;1.60;;;;;;;;;;5012439;28;20089;-48
2022/03/29 10:18:31;;;;;;;3.40;1.40;;;;;;;;;;5011754;28;20045;-49
2022/03/29 10:21:00;;;;;;;5.07;1.80;;;;;;;;;;5012346;28;20026;-51
2022/03/29 10:23:29;;;;;;;5.47;1.48;;;;;;;;;;5012452;28;20128;-48
2022/03/29 10:25:57;;;;;;;4.18;1.63;;;;;;;;;;5012144;28;20037;-48
2022/03/29 10:28:28;;;;;;;6.63;1.85;;;;;;;;;;4996917;28;20049;-48
2022/03/29 10:30:55;;;;;;;15.52;1.85;;;;;;;;;;5031712;28;20033;-50
2022/03/29 10:33:35;;;;;;;11.73;2.53;;;;;;;;;;5014747;28;20050;-47
2022/03/29 10:36:05;;;;;;;11.00;2.05;;;;;;;;;;5030058;28;20471;-51
2022/03/29 10:38:47;;;;;;;13.65;2.40;;;;;;;;;;5035420;28;20026;-46
2022/03/29 10:41:29;;;;;;;19.07;2.20;;;;;;;;;;5036003;28;20033;-49
2022/03/29 10:44:14;;;;;;;11.65;2.10;;;;;;;;;;5018209;28;20029;-49
2022/03/29 10:46:41;;;;;;;17.92;2.40;;;;;;;;;;5035882;28;20486;-48
2022/03/29 10:49:18;;;;;;;24.63;2.58;;;;;;;;;;5035994;28;20022;-46
2022/03/29 10:51:51;;;;;;;18.02;2.53;;;;;;;;;;5035885;28;20598;-47
2022/03/29 10:54:26;;;;;;;19.00;2.95;;;;;;;;;;5035822;28;20041;-47
2022/03/29 10:57:00;;;;;;;16.95;2.60;;;;;;;;;;5035805;28;20101;-50
2022/03/29 10:59:27;;;;;;;17.40;2.60;;;;;;;;;;5035743;28;20025;-47
2022/03/29 11:02:12;;;;;;;22.30;2.75;;;;;;;;;;5035666;28;20052;-51
2022/03/29 11:04:59;;;;;;;18.38;2.67;;;;;;;;;;5035529;28;20021;-47
2022/03/29 11:07:26;;;;;;;21.52;2.92;;;;;;;;;;5022092;28;20050;-51
2022/03/29 11:10:13;;;;;;;23.77;3.50;;;;;;;;;;5035540;28;20025;-49
2022/03/29 11:12:45;;;;;;;58.40;5.65;;;;;;;;;;5034944;28;20045;-54
2022/03/29 11:15:32;;;;;;;227.77;42.17;;;;;;;;;;5017111;28;20471;-48
2022/03/29 11:17:59;;;;;;;73.18;8.13;;;;;;;;;;5035064;28;20539;-46
2022/03/29 11:20:30;;;;;;;544.53;21.75;;;;;;;;;;5035116;28;20037;-36
2022/03/29 11:22:59;;;;;;;72.45;8.02;;;;;;;;;;5035098;28;20028;-36
2022/03/29 11:25:26;;;;;;;106.22;8.90;;;;;;;;;;5035204;28;20075;-35
2022/03/29 11:27:53;;;;;;;131.57;11.30;;;;;;;;;;5035125;28;20076;-41
2022/03/29 11:30:20;;;;;;;66.53;6.90;;;;;;;;;;5034948;28;20029;-41
2022/03/29 11:32:47;;;;;;;83.68;7.82;;;;;;;;;;5034600;28;20095;-43
2022/03/29 11:35:19;;;;;;;52.80;6.68;;;;;;;;;;5034956;28;20029;-46
2022/03/29 11:37:49;;;;;;;30.25;3.40;;;;;;;;;;5034844;28;20513;-48
2022/03/29 11:40:17;;;;;;;35.15;3.80;;;;;;;;;;5034694;28;20045;-50
2022/03/29 11:42:52;;;;;;;45.58;4.95;;;;;;;;;;5034647;28;20487;-50
2022/03/29 11:45:20;;;;;;;31.27;3.00;;;;;;;;;;5017002;28;20388;-51
2022/03/29 11:47:58;;;;;;;22.25;2.83;;;;;;;;;;5034723;28;20083;-49
2022/03/29 11:50:44;;;;;;;16.10;2.50;;;;;;;;;;5034748;28;20040;-52
2022/03/29 11:53:21;;;;;;;15.90;1.90;;;;;;;;;;5034708;28;20033;-53
2022/03/29 11:55:57;;;;;;;21.10;2.40;;;;;;;;;;5034632;28;20084;-50
2022/03/29 11:58:25;;;;;;;25.27;2.75;;;;;;;;;;5033530;28;20483;-51
2022/03/29 12:00:55;;;;;;;13.63;1.80;;;;;;;;;;5034333;28;20392;-51
2022/03/29 12:03:42;;;;;;;17.83;1.98;;;;;;;;;;5034379;28;20080;-48
2022/03/29 12:06:14;;;;;;;14.90;1.80;;;;;;;;;;5034366;28;20018;-52
2022/03/29 12:08:44;;;;;;;15.48;1.70;;;;;;;;;;5034455;28;20025;-51
2022/03/29 12:11:10;;;;;;;9.52;1.55;;;;;;;;;;5034270;28;20025;-52
2022/03/29 13:04:54;;;;;;;62.35;3.75;;;;;;;;;;5032075;28;20081;-51
2022/03/29 13:07:33;;;;;;;82.13;5.28;;;;;;;;;;5032858;28;20060;-50
2022/03/29 13:10:11;;;;;;;74.35;2.95;;;;;;;;;;5032814;28;20029;-50
2022/03/29 13:12:51;;;;;;;120.15;6.35;;;;;;;;;;5032666;28;20021;-52
2022/03/29 13:15:37;;;;;;;70.50;4.38;;;;;;;;;;5032782;28;20100;-52
2022/03/29 13:18:08;;;;;;;34.95;2.80;;;;;;;;;;5032788;28;20124;-48
2022/03/29 13:20:37;;;;;;;49.55;3.10;;;;;;;;;;5032660;28;20041;-43
2022/03/29 13:23:04;;;;;;;37.33;3.15;;;;;;;;;;5032526;28;20021;-48
2022/03/29 13:25:35;;;;;;;26.38;2.53;;;;;;;;;;5032627;28;20018;-44
2022/03/29 13:28:02;;;;;;;33.83;3.10;;;;;;;;;;5032496;28;20026;-43
2022/03/29 13:30:29;;;;;;;34.55;3.17;;;;;;;;;;5032396;28;20036;-43
2022/03/29 13:32:56;;;;;;;31.52;2.75;;;;;;;;;;5032347;28;20052;-45
2022/03/29 13:35:23;;;;;;;23.58;2.00;;;;;;;;;;5032400;28;20025;-43
2022/03/29 13:37:50;;;;;;;33.75;2.72;;;;;;;;;;5032315;28;20018;-44
2022/03/29 13:40:18;;;;;;;24.05;1.95;;;;;;;;;;5032253;28;20031;-44
2022/03/29 13:42:45;;;;;;;29.00;2.45;;;;;;;;;;5032181;28;20033;-43
2022/03/29 13:45:12;;;;;;;34.00;2.33;;;;;;;;;;5032262;28;20448;-43
2022/03/29 13:47:41;;;;;;;30.77;2.50;;;;;;;;;;5032062;28;20088;-43
2022/03/29 13:50:08;;;;;;;34.60;2.40;;;;;;;;;;5030333;28;20095;-45
2022/03/29 13:52:35;;;;;;;36.33;3.40;;;;;;;;;;5012121;28;20036;-43
2022/03/29 13:55:03;;;;;;;30.20;2.30;;;;;;;;;;5011896;28;20480;-44
2022/03/29 13:57:29;;;;;;;20.70;2.25;;;;;;;;;;5011429;28;20129;-44
2022/03/29 13:59:58;;;;;;;24.52;2.35;;;;;;;;;;5011375;28;20109;-43
2022/03/29 14:02:25;;;;;;;22.80;2.50;;;;;;;;;;5011465;28;20133;-47
2022/03/29 14:04:52;;;;;;;21.40;2.38;;;;;;;;;;5011064;28;20072;-43
2022/03/29 14:07:19;;;;;;;29.30;3.03;;;;;;;;;;5011617;28;20022;-43
2022/03/29 14:09:46;;;;;;;23.98;2.25;;;;;;;;;;5011588;28;20030;-43
2022/03/29 14:12:13;;;;;;;25.40;2.25;;;;;;;;;;5012807;28;20026;-42
2022/03/29 14:14:40;;;;;;;29.70;3.38;;;;;;;;;;5015290;28;20050;-42
2022/03/29 14:17:07;;;;;;;22.50;2.33;;;;;;;;;;5015729;28;20502;-43
2022/03/29 14:19:34;;;;;;;21.00;2.45;;;;;;;;;;5014333;28;20028;-43
2022/03/29 14:22:01;;;;;;;23.48;1.92;;;;;;;;;;5015234;28;20044;-43
2022/03/29 14:24:28;;;;;;;30.67;3.03;;;;;;;;;;5015407;28;20483;-44
2022/03/29 14:26:56;;;;;;;31.02;2.45;;;;;;;;;;5015120;28;20069;-44
2022/03/29 14:29:23;;;;;;;29.45;2.63;;;;;;;;;;5015161;28;20026;-44
2022/03/29 14:31:50;;;;;;;28.02;3.08;;;;;;;;;;5015519;28;20036;-44
2022/03/29 14:34:17;;;;;;;33.53;2.65;;;;;;;;;;5015016;28;20025;-42
2022/03/29 14:36:46;;;;;;;29.05;2.45;;;;;;;;;;5015018;28;20386;-43
2022/03/29 14:39:13;;;;;;;20.20;2.10;;;;;;;;;;5014829;28;20093;-44
2022/03/29 14:41:39;;;;;;;43.38;3.20;;;;;;;;;;5015092;28;20077;-43
2022/03/29 14:44:10;;;;;;;48.38;4.38;;;;;;;;;;5014595;28;20033;-46
2022/03/29 14:46:37;;;;;;;50.00;3.85;;;;;;;;;;5014775;28;20034;-45
2022/03/29 14:49:04;;;;;;;45.00;3.38;;;;;;;;;;5015054;28;20033;-45
2022/03/29 14:51:31;;;;;;;33.83;3.10;;;;;;;;;;5014975;28;20050;-43
2022/03/29 14:53:58;;;;;;;36.83;3.22;;;;;;;;;;5013560;28;20034;-43
2022/03/29 14:56:25;;;;;;;42.25;3.17;;;;;;;;;;5014819;28;20026;-44
2022/03/29 14:58:52;;;;;;;29.33;2.67;;;;;;;;;;5014585;28;20041;-43
2022/03/29 15:01:19;;;;;;;30.85;2.80;;;;;;;;;;5014361;28;20033;-42
2022/03/29 15:03:46;;;;;;;40.97;3.10;;;;;;;;;;5023675;28;20459;-42
2022/03/29 15:06:13;;;;;;;46.08;3.47;;;;;;;;;;5034048;28;20105;-43
2022/03/29 15:08:40;;;;;;;34.63;3.85;;;;;;;;;;5034349;28;20041;-44
2022/03/29 15:11:06;;;;;;;47.45;4.03;;;;;;;;;;5034356;28;20052;-46
2022/03/29 15:13:33;;;;;;;35.92;3.05;;;;;;;;;;5033891;28;20026;-43
2022/03/29 15:16:00;;;;;;;34.72;2.95;;;;;;;;;;5034004;28;20025;-45
2022/03/29 15:18:27;;;;;;;33.67;3.45;;;;;;;;;;5034301;28;20029;-49
2022/03/29 15:20:55;;;;;;;39.22;3.67;;;;;;;;;;5033555;28;20041;-46
2022/03/29 15:23:22;;;;;;;36.30;3.30;;;;;;;;;;5033483;28;20018;-44
2022/03/29 15:25:49;;;;;;;35.17;3.25;;;;;;;;;;5034078;28;20049;-46
2022/03/29 15:28:16;;;;;;;47.40;12.13;;;;;;;;;;5033684;28;20029;-48
2022/03/29 15:30:44;;;;;;;89.97;36.58;;;;;;;;;;5033745;28;20112;-46
2022/03/29 15:33:11;;;;;;;168.73;74.57;;;;;;;;;;5034193;28;20022;-45
2022/03/29 15:35:38;;;;;;;201.23;113.53;;;;;;;;;;5033089;28;20030;-45
2022/03/29 15:38:05;;;;;;;239.82;139.85;;;;;;;;;;5033755;28;20034;-44
2022/03/29 15:40:37;;;;;;;228.98;135.45;;;;;;;;;;5043965;28;20078;-44
2022/03/29 15:43:04;;;;;;;210.23;119.05;;;;;;;;;;5053174;28;20036;-47